sensor_id;sensor_type;location;lat;lon;timestamp;P1;durP1;ratioP1;P2;durP2;ratioP2
53666;SDS011;39568;51.026;5.468;2023-05-10T00:00:17;38.47;;;18.63;;
53666;SDS011;39568;51.026;5.468;2023-05-10T00:02:44;49.90;;;19.52;;
53666;SDS011;39568;51.026;5.468;2023-05-10T00:05:10;46.38;;;19.05;;
53666;SDS011;39568;51.026;5.468;2023-05-10T00:07:37;45.50;;;20.42;;
53666;SDS011;39568;51.026;5.468;2023-05-10T00:10:06;47.65;;;20.50;;
53666;SDS011;39568;51.026;5.468;2023-05-10T00:12:33;31.60;;;16.15;;
53666;SDS011;39568;51.026;5.468;2023-05-10T00:14:59;44.50;;;19.33;;
53666;SDS011;39568;51.026;5.468;2023-05-10T00:17:26;34.75;;;19.10;;
53666;SDS011;39568;51.026;5.468;2023-05-10T00:19:53;35.83;;;18.17;;
53666;SDS011;39568;51.026;5.468;2023-05-10T00:22:19;36.20;;;19.48;;
53666;SDS011;39568;51.026;5.468;2023-05-10T00:24:46;40.75;;;22.20;;
53666;SDS011;39568;51.026;5.468;2023-05-10T00:27:14;42.60;;;21.25;;
53666;SDS011;39568;51.026;5.468;2023-05-10T00:29:41;41.45;;;20.70;;
53666;SDS011;39568;51.026;5.468;2023-05-10T00:32:07;33.50;;;19.25;;
53666;SDS011;39568;51.026;5.468;2023-05-10T00:34:34;32.25;;;17.02;;
53666;SDS011;39568;51.026;5.468;2023-05-10T00:37:02;32.05;;;17.98;;
53666;SDS011;39568;51.026;5.468;2023-05-10T00:39:29;37.17;;;19.05;;
53666;SDS011;39568;51.026;5.468;2023-05-10T00:41:56;36.70;;;19.63;;
53666;SDS011;39568;51.026;5.468;2023-05-10T00:44:24;26.02;;;15.65;;
53666;SDS011;39568;51.026;5.468;2023-05-10T00:46:51;33.75;;;18.05;;
53666;SDS011;39568;51.026;5.468;2023-05-10T00:49:18;36.17;;;17.25;;
53666;SDS011;39568;51.026;5.468;2023-05-10T00:51:46;33.30;;;17.55;;
53666;SDS011;39568;51.026;5.468;2023-05-10T00:54:14;27.13;;;16.63;;
53666;SDS011;39568;51.026;5.468;2023-05-10T00:56:42;29.65;;;16.10;;
53666;SDS011;39568;51.026;5.468;2023-05-10T01:01:44;28.25;;;17.15;;
53666;SDS011;39568;51.026;5.468;2023-05-10T01:04:12;28.65;;;16.60;;
53666;SDS011;39568;51.026;5.468;2023-05-10T01:06:39;26.85;;;16.33;;
53666;SDS011;39568;51.026;5.468;2023-05-10T01:09:06;34.05;;;17.05;;
53666;SDS011;39568;51.026;5.468;2023-05-10T01:11:33;26.02;;;16.08;;
53666;SDS011;39568;51.026;5.468;2023-05-10T01:14:03;33.13;;;16.20;;
53666;SDS011;39568;51.026;5.468;2023-05-10T01:16:31;23.58;;;14.45;;
53666;SDS011;39568;51.026;5.468;2023-05-10T01:21:38;28.02;;;15.00;;
53666;SDS011;39568;51.026;5.468;2023-05-10T01:27:18;26.75;;;14.98;;
53666;SDS011;39568;51.026;5.468;2023-05-10T01:30:05;26.30;;;12.55;;
53666;SDS011;39568;51.026;5.468;2023-05-10T01:32:41;21.42;;;14.77;;
53666;SDS011;39568;51.026;5.468;2023-05-10T01:35:16;21.13;;;12.93;;
53666;SDS011;39568;51.026;5.468;2023-05-10T01:37:45;27.15;;;15.55;;
53666;SDS011;39568;51.026;5.468;2023-05-10T01:40:19;31.33;;;15.30;;
53666;SDS011;39568;51.026;5.468;2023-05-10T01:42:56;23.98;;;12.52;;
53666;SDS011;39568;51.026;5.468;2023-05-10T01:45:29;21.30;;;12.40;;
53666;SDS011;39568;51.026;5.468;2023-05-10T01:48:05;23.58;;;14.90;;
53666;SDS011;39568;51.026;5.468;2023-05-10T01:50:38;13.57;;;10.15;;
53666;SDS011;39568;51.026;5.468;2023-05-10T01:53:08;28.48;;;11.45;;
53666;SDS011;39568;51.026;5.468;2023-05-10T01:55:39;17.75;;;10.57;;
53666;SDS011;39568;51.026;5.468;2023-05-10T01:58:13;29.30;;;14.85;;
53666;SDS011;39568;51.026;5.468;2023-05-10T02:00:43;31.77;;;13.40;;
53666;SDS011;39568;51.026;5.468;2023-05-10T02:03:12;23.10;;;10.98;;
53666;SDS011;39568;51.026;5.468;2023-05-10T02:05:41;31.42;;;13.88;;
53666;SDS011;39568;51.026;5.468;2023-05-10T02:08:10;24.27;;;13.48;;
53666;SDS011;39568;51.026;5.468;2023-05-10T02:10:38;17.77;;;10.48;;
53666;SDS011;39568;51.026;5.468;2023-05-10T02:13:06;22.65;;;12.65;;
53666;SDS011;39568;51.026;5.468;2023-05-10T02:15:34;33.13;;;14.75;;
53666;SDS011;39568;51.026;5.468;2023-05-10T02:18:12;33.50;;;16.00;;
53666;SDS011;39568;51.026;5.468;2023-05-10T02:20:46;22.77;;;12.25;;
53666;SDS011;39568;51.026;5.468;2023-05-10T02:23:14;23.60;;;13.95;;
53666;SDS011;39568;51.026;5.468;2023-05-10T02:25:44;32.38;;;13.05;;
53666;SDS011;39568;51.026;5.468;2023-05-10T02:28:11;34.97;;;14.45;;
53666;SDS011;39568;51.026;5.468;2023-05-10T02:30:41;23.73;;;13.15;;
53666;SDS011;39568;51.026;5.468;2023-05-10T02:33:15;33.08;;;12.75;;
53666;SDS011;39568;51.026;5.468;2023-05-10T02:35:42;23.33;;;12.70;;
53666;SDS011;39568;51.026;5.468;2023-05-10T02:38:09;29.30;;;13.48;;
53666;SDS011;39568;51.026;5.468;2023-05-10T02:40:37;30.95;;;13.18;;
53666;SDS011;39568;51.026;5.468;2023-05-10T02:43:07;24.88;;;11.13;;
53666;SDS011;39568;51.026;5.468;2023-05-10T02:45:38;28.60;;;15.00;;
53666;SDS011;39568;51.026;5.468;2023-05-10T02:48:08;29.70;;;13.52;;
53666;SDS011;39568;51.026;5.468;2023-05-10T02:50:39;23.80;;;14.43;;
53666;SDS011;39568;51.026;5.468;2023-05-10T02:53:10;35.90;;;15.63;;
53666;SDS011;39568;51.026;5.468;2023-05-10T02:55:42;22.77;;;13.13;;
53666;SDS011;39568;51.026;5.468;2023-05-10T02:58:15;35.55;;;14.35;;
53666;SDS011;39568;51.026;5.468;2023-05-10T03:00:44;26.80;;;13.60;;
53666;SDS011;39568;51.026;5.468;2023-05-10T03:03:11;32.65;;;15.23;;
53666;SDS011;39568;51.026;5.468;2023-05-10T03:05:39;29.85;;;14.73;;
53666;SDS011;39568;51.026;5.468;2023-05-10T03:08:05;23.20;;;13.07;;
53666;SDS011;39568;51.026;5.468;2023-05-10T03:10:33;42.53;;;16.42;;
53666;SDS011;39568;51.026;5.468;2023-05-10T03:13:06;41.67;;;17.67;;
53666;SDS011;39568;51.026;5.468;2023-05-10T03:15:42;32.00;;;16.67;;
53666;SDS011;39568;51.026;5.468;2023-05-10T03:18:15;37.88;;;17.92;;
53666;SDS011;39568;51.026;5.468;2023-05-10T03:20:47;40.53;;;17.90;;
53666;SDS011;39568;51.026;5.468;2023-05-10T03:23:20;32.33;;;14.85;;
53666;SDS011;39568;51.026;5.468;2023-05-10T03:25:49;31.50;;;15.70;;
53666;SDS011;39568;51.026;5.468;2023-05-10T03:28:17;38.33;;;18.20;;
53666;SDS011;39568;51.026;5.468;2023-05-10T03:30:45;31.50;;;16.83;;
53666;SDS011;39568;51.026;5.468;2023-05-10T03:33:12;40.55;;;17.77;;
53666;SDS011;39568;51.026;5.468;2023-05-10T03:35:39;40.97;;;15.65;;
53666;SDS011;39568;51.026;5.468;2023-05-10T03:38:10;50.28;;;19.70;;
53666;SDS011;39568;51.026;5.468;2023-05-10T03:40:37;24.83;;;13.07;;
53666;SDS011;39568;51.026;5.468;2023-05-10T03:43:04;40.58;;;16.48;;
53666;SDS011;39568;51.026;5.468;2023-05-10T03:45:31;29.58;;;14.13;;
53666;SDS011;39568;51.026;5.468;2023-05-10T03:47:58;31.05;;;18.05;;
53666;SDS011;39568;51.026;5.468;2023-05-10T03:50:25;43.17;;;18.38;;
53666;SDS011;39568;51.026;5.468;2023-05-10T03:52:51;26.10;;;12.23;;
53666;SDS011;39568;51.026;5.468;2023-05-10T03:55:23;36.78;;;14.40;;
53666;SDS011;39568;51.026;5.468;2023-05-10T03:57:50;34.25;;;17.13;;
53666;SDS011;39568;51.026;5.468;2023-05-10T04:00:19;27.58;;;14.27;;
53666;SDS011;39568;51.026;5.468;2023-05-10T04:02:51;32.55;;;16.88;;
53666;SDS011;39568;51.026;5.468;2023-05-10T04:05:18;36.05;;;17.38;;
53666;SDS011;39568;51.026;5.468;2023-05-10T04:07:45;40.88;;;17.25;;
53666;SDS011;39568;51.026;5.468;2023-05-10T04:10:12;33.72;;;16.75;;
53666;SDS011;39568;51.026;5.468;2023-05-10T04:12:40;48.10;;;18.73;;
53666;SDS011;39568;51.026;5.468;2023-05-10T04:15:07;48.08;;;19.98;;
53666;SDS011;39568;51.026;5.468;2023-05-10T04:17:34;35.95;;;15.88;;
53666;SDS011;39568;51.026;5.468;2023-05-10T04:20:03;36.95;;;17.63;;
53666;SDS011;39568;51.026;5.468;2023-05-10T04:22:31;35.00;;;16.52;;
53666;SDS011;39568;51.026;5.468;2023-05-10T04:24:58;29.75;;;13.88;;
53666;SDS011;39568;51.026;5.468;2023-05-10T04:27:24;40.25;;;17.45;;
53666;SDS011;39568;51.026;5.468;2023-05-10T04:29:53;28.25;;;12.90;;
53666;SDS011;39568;51.026;5.468;2023-05-10T04:32:23;46.07;;;18.27;;
53666;SDS011;39568;51.026;5.468;2023-05-10T04:34:51;34.47;;;16.95;;
53666;SDS011;39568;51.026;5.468;2023-05-10T04:37:22;31.42;;;18.83;;
53666;SDS011;39568;51.026;5.468;2023-05-10T04:39:53;41.53;;;19.25;;
53666;SDS011;39568;51.026;5.468;2023-05-10T04:42:19;42.13;;;17.42;;
53666;SDS011;39568;51.026;5.468;2023-05-10T04:44:46;32.08;;;12.73;;
53666;SDS011;39568;51.026;5.468;2023-05-10T04:47:18;42.57;;;18.03;;
53666;SDS011;39568;51.026;5.468;2023-05-10T04:49:45;30.95;;;17.08;;
53666;SDS011;39568;51.026;5.468;2023-05-10T04:52:11;21.30;;;10.52;;
53666;SDS011;39568;51.026;5.468;2023-05-10T04:54:39;29.70;;;14.50;;
53666;SDS011;39568;51.026;5.468;2023-05-10T04:57:06;34.25;;;18.80;;
53666;SDS011;39568;51.026;5.468;2023-05-10T04:59:32;34.97;;;17.98;;
53666;SDS011;39568;51.026;5.468;2023-05-10T05:02:02;47.08;;;20.38;;
53666;SDS011;39568;51.026;5.468;2023-05-10T05:04:31;34.08;;;16.17;;
53666;SDS011;39568;51.026;5.468;2023-05-10T05:07:00;26.38;;;15.65;;
53666;SDS011;39568;51.026;5.468;2023-05-10T05:09:35;37.78;;;17.50;;
53666;SDS011;39568;51.026;5.468;2023-05-10T05:12:02;34.28;;;16.20;;
53666;SDS011;39568;51.026;5.468;2023-05-10T05:14:29;43.40;;;18.02;;
53666;SDS011;39568;51.026;5.468;2023-05-10T05:16:56;29.05;;;13.38;;
53666;SDS011;39568;51.026;5.468;2023-05-10T05:19:23;55.72;;;21.40;;
53666;SDS011;39568;51.026;5.468;2023-05-10T05:21:51;47.35;;;18.98;;
53666;SDS011;39568;51.026;5.468;2023-05-10T05:24:18;54.70;;;21.42;;
53666;SDS011;39568;51.026;5.468;2023-05-10T05:26:44;50.95;;;18.83;;
53666;SDS011;39568;51.026;5.468;2023-05-10T05:29:11;39.50;;;17.98;;
53666;SDS011;39568;51.026;5.468;2023-05-10T05:31:43;33.42;;;17.05;;
53666;SDS011;39568;51.026;5.468;2023-05-10T05:34:10;37.03;;;17.38;;
53666;SDS011;39568;51.026;5.468;2023-05-10T05:36:37;25.52;;;12.95;;
53666;SDS011;39568;51.026;5.468;2023-05-10T05:39:08;39.67;;;17.73;;
53666;SDS011;39568;51.026;5.468;2023-05-10T05:41:38;50.78;;;24.67;;
53666;SDS011;39568;51.026;5.468;2023-05-10T05:44:06;45.65;;;19.40;;
53666;SDS011;39568;51.026;5.468;2023-05-10T05:46:33;66.63;;;26.95;;
53666;SDS011;39568;51.026;5.468;2023-05-10T05:49:00;89.13;;;30.27;;
53666;SDS011;39568;51.026;5.468;2023-05-10T05:51:28;59.22;;;23.13;;
53666;SDS011;39568;51.026;5.468;2023-05-10T05:53:56;82.63;;;29.83;;
53666;SDS011;39568;51.026;5.468;2023-05-10T05:56:29;64.18;;;22.80;;
53666;SDS011;39568;51.026;5.468;2023-05-10T05:58:57;80.82;;;27.23;;
53666;SDS011;39568;51.026;5.468;2023-05-10T06:01:24;61.50;;;22.92;;
53666;SDS011;39568;51.026;5.468;2023-05-10T06:03:50;72.00;;;28.48;;
53666;SDS011;39568;51.026;5.468;2023-05-10T06:06:22;55.05;;;23.35;;
53666;SDS011;39568;51.026;5.468;2023-05-10T06:08:49;59.65;;;21.30;;
53666;SDS011;39568;51.026;5.468;2023-05-10T06:11:17;45.22;;;17.90;;
53666;SDS011;39568;51.026;5.468;2023-05-10T06:13:45;63.53;;;24.00;;
53666;SDS011;39568;51.026;5.468;2023-05-10T06:16:12;50.53;;;18.38;;
53666;SDS011;39568;51.026;5.468;2023-05-10T06:18:38;58.53;;;23.63;;
53666;SDS011;39568;51.026;5.468;2023-05-10T06:21:05;63.75;;;23.38;;
53666;SDS011;39568;51.026;5.468;2023-05-10T06:23:32;51.17;;;20.33;;
53666;SDS011;39568;51.026;5.468;2023-05-10T06:25:59;62.45;;;22.88;;
53666;SDS011;39568;51.026;5.468;2023-05-10T06:28:25;61.50;;;22.48;;
53666;SDS011;39568;51.026;5.468;2023-05-10T06:30:54;74.35;;;25.27;;
53666;SDS011;39568;51.026;5.468;2023-05-10T06:33:21;71.78;;;25.55;;
53666;SDS011;39568;51.026;5.468;2023-05-10T06:35:51;39.10;;;17.17;;
53666;SDS011;39568;51.026;5.468;2023-05-10T06:38:18;71.88;;;28.48;;
53666;SDS011;39568;51.026;5.468;2023-05-10T06:40:44;81.70;;;29.63;;
53666;SDS011;39568;51.026;5.468;2023-05-10T06:43:11;62.50;;;25.08;;
53666;SDS011;39568;51.026;5.468;2023-05-10T06:45:37;82.45;;;29.92;;
53666;SDS011;39568;51.026;5.468;2023-05-10T06:48:06;81.20;;;28.23;;
53666;SDS011;39568;51.026;5.468;2023-05-10T06:50:33;80.55;;;31.33;;
53666;SDS011;39568;51.026;5.468;2023-05-10T06:55:30;90.65;;;29.38;;
53666;SDS011;39568;51.026;5.468;2023-05-10T06:57:57;84.20;;;29.13;;
53666;SDS011;39568;51.026;5.468;2023-05-10T07:00:23;72.85;;;26.35;;
53666;SDS011;39568;51.026;5.468;2023-05-10T07:02:51;76.50;;;29.30;;
53666;SDS011;39568;51.026;5.468;2023-05-10T07:05:21;77.22;;;32.75;;
53666;SDS011;39568;51.026;5.468;2023-05-10T07:07:48;64.40;;;27.10;;
53666;SDS011;39568;51.026;5.468;2023-05-10T07:10:15;58.25;;;22.30;;
53666;SDS011;39568;51.026;5.468;2023-05-10T07:12:45;67.75;;;24.85;;
53666;SDS011;39568;51.026;5.468;2023-05-10T07:15:12;74.82;;;27.95;;
53666;SDS011;39568;51.026;5.468;2023-05-10T07:17:38;62.97;;;21.55;;
53666;SDS011;39568;51.026;5.468;2023-05-10T07:20:06;71.63;;;28.77;;
53666;SDS011;39568;51.026;5.468;2023-05-10T07:22:35;57.17;;;22.92;;
53666;SDS011;39568;51.026;5.468;2023-05-10T07:25:03;80.05;;;28.00;;
53666;SDS011;39568;51.026;5.468;2023-05-10T07:27:31;65.63;;;24.48;;
53666;SDS011;39568;51.026;5.468;2023-05-10T07:29:58;70.65;;;27.98;;
53666;SDS011;39568;51.026;5.468;2023-05-10T07:32:25;78.43;;;23.83;;
53666;SDS011;39568;51.026;5.468;2023-05-10T07:34:55;67.72;;;26.58;;
53666;SDS011;39568;51.026;5.468;2023-05-10T07:37:22;60.95;;;24.17;;
53666;SDS011;39568;51.026;5.468;2023-05-10T07:39:50;62.67;;;24.85;;
53666;SDS011;39568;51.026;5.468;2023-05-10T07:42:17;72.82;;;27.60;;
53666;SDS011;39568;51.026;5.468;2023-05-10T07:44:43;74.13;;;27.83;;
53666;SDS011;39568;51.026;5.468;2023-05-10T07:47:11;77.15;;;29.25;;
53666;SDS011;39568;51.026;5.468;2023-05-10T07:49:40;81.65;;;29.20;;
53666;SDS011;39568;51.026;5.468;2023-05-10T07:52:11;69.73;;;23.60;;
53666;SDS011;39568;51.026;5.468;2023-05-10T07:54:39;39.78;;;17.95;;
53666;SDS011;39568;51.026;5.468;2023-05-10T07:57:11;69.75;;;26.77;;
53666;SDS011;39568;51.026;5.468;2023-05-10T07:59:42;74.72;;;26.42;;
53666;SDS011;39568;51.026;5.468;2023-05-10T08:02:10;66.75;;;26.52;;
53666;SDS011;39568;51.026;5.468;2023-05-10T08:04:38;74.53;;;29.13;;
53666;SDS011;39568;51.026;5.468;2023-05-10T08:07:05;56.53;;;23.75;;
53666;SDS011;39568;51.026;5.468;2023-05-10T08:09:32;73.38;;;23.67;;
53666;SDS011;39568;51.026;5.468;2023-05-10T08:11:59;68.05;;;25.13;;
53666;SDS011;39568;51.026;5.468;2023-05-10T08:14:37;78.13;;;29.80;;
53666;SDS011;39568;51.026;5.468;2023-05-10T08:17:05;60.78;;;22.38;;
53666;SDS011;39568;51.026;5.468;2023-05-10T08:19:32;70.97;;;27.00;;
53666;SDS011;39568;51.026;5.468;2023-05-10T08:21:58;71.32;;;29.60;;
53666;SDS011;39568;51.026;5.468;2023-05-10T08:24:25;67.00;;;26.17;;
53666;SDS011;39568;51.026;5.468;2023-05-10T08:26:52;73.68;;;28.77;;
53666;SDS011;39568;51.026;5.468;2023-05-10T08:29:19;69.18;;;24.35;;
53666;SDS011;39568;51.026;5.468;2023-05-10T08:31:47;67.15;;;25.90;;
53666;SDS011;39568;51.026;5.468;2023-05-10T08:34:13;57.30;;;23.63;;
53666;SDS011;39568;51.026;5.468;2023-05-10T08:36:43;55.30;;;23.15;;
53666;SDS011;39568;51.026;5.468;2023-05-10T08:39:10;63.53;;;24.98;;
53666;SDS011;39568;51.026;5.468;2023-05-10T08:41:45;65.07;;;24.33;;
53666;SDS011;39568;51.026;5.468;2023-05-10T08:44:19;60.05;;;25.10;;
53666;SDS011;39568;51.026;5.468;2023-05-10T08:46:48;52.35;;;22.48;;
53666;SDS011;39568;51.026;5.468;2023-05-10T08:49:22;54.92;;;22.40;;
53666;SDS011;39568;51.026;5.468;2023-05-10T08:51:51;59.25;;;26.27;;
53666;SDS011;39568;51.026;5.468;2023-05-10T08:54:21;56.33;;;24.70;;
53666;SDS011;39568;51.026;5.468;2023-05-10T08:56:48;56.42;;;21.83;;
53666;SDS011;39568;51.026;5.468;2023-05-10T08:59:14;50.33;;;23.77;;
53666;SDS011;39568;51.026;5.468;2023-05-10T09:01:41;55.10;;;25.50;;
53666;SDS011;39568;51.026;5.468;2023-05-10T09:04:12;64.45;;;24.95;;
53666;SDS011;39568;51.026;5.468;2023-05-10T09:06:40;42.75;;;16.80;;
53666;SDS011;39568;51.026;5.468;2023-05-10T09:09:08;28.08;;;15.18;;
53666;SDS011;39568;51.026;5.468;2023-05-10T09:11:36;18.20;;;10.98;;
53666;SDS011;39568;51.026;5.468;2023-05-10T09:14:03;11.60;;;6.60;;
53666;SDS011;39568;51.026;5.468;2023-05-10T09:16:30;18.63;;;8.75;;
53666;SDS011;39568;51.026;5.468;2023-05-10T09:18:56;16.73;;;6.40;;
53666;SDS011;39568;51.026;5.468;2023-05-10T09:21:25;9.45;;;7.45;;
53666;SDS011;39568;51.026;5.468;2023-05-10T09:23:52;15.98;;;8.90;;
53666;SDS011;39568;51.026;5.468;2023-05-10T09:26:21;17.15;;;9.70;;
53666;SDS011;39568;51.026;5.468;2023-05-10T09:28:52;8.68;;;5.65;;
53666;SDS011;39568;51.026;5.468;2023-05-10T09:33:52;12.88;;;9.32;;
53666;SDS011;39568;51.026;5.468;2023-05-10T09:36:19;15.00;;;9.10;;
53666;SDS011;39568;51.026;5.468;2023-05-10T09:38:47;13.25;;;7.32;;
53666;SDS011;39568;51.026;5.468;2023-05-10T09:41:20;7.68;;;5.85;;
53666;SDS011;39568;51.026;5.468;2023-05-10T09:43:48;10.50;;;6.97;;
53666;SDS011;39568;51.026;5.468;2023-05-10T09:46:16;5.78;;;5.25;;
53666;SDS011;39568;51.026;5.468;2023-05-10T09:48:45;9.27;;;7.60;;
53666;SDS011;39568;51.026;5.468;2023-05-10T09:51:20;13.25;;;7.80;;
53666;SDS011;39568;51.026;5.468;2023-05-10T09:53:49;7.57;;;6.10;;
53666;SDS011;39568;51.026;5.468;2023-05-10T09:56:35;11.00;;;7.43;;
53666;SDS011;39568;51.026;5.468;2023-05-10T09:59:04;9.75;;;6.65;;
53666;SDS011;39568;51.026;5.468;2023-05-10T10:01:31;5.90;;;5.25;;
53666;SDS011;39568;51.026;5.468;2023-05-10T10:04:04;7.18;;;5.47;;
53666;SDS011;39568;51.026;5.468;2023-05-10T10:06:35;8.93;;;7.63;;
53666;SDS011;39568;51.026;5.468;2023-05-10T10:09:04;9.27;;;6.88;;
53666;SDS011;39568;51.026;5.468;2023-05-10T10:11:33;5.15;;;4.72;;
53666;SDS011;39568;51.026;5.468;2023-05-10T10:14:00;11.30;;;6.75;;
53666;SDS011;39568;51.026;5.468;2023-05-10T10:16:28;6.63;;;5.85;;
53666;SDS011;39568;51.026;5.468;2023-05-10T10:18:56;10.45;;;8.23;;
53666;SDS011;39568;51.026;5.468;2023-05-10T10:21:24;12.93;;;8.18;;
53666;SDS011;39568;51.026;5.468;2023-05-10T10:23:51;12.07;;;6.60;;
53666;SDS011;39568;51.026;5.468;2023-05-10T10:26:19;22.05;;;10.30;;
53666;SDS011;39568;51.026;5.468;2023-05-10T10:28:50;14.10;;;7.63;;
53666;SDS011;39568;51.026;5.468;2023-05-10T10:31:25;16.23;;;9.75;;
53666;SDS011;39568;51.026;5.468;2023-05-10T10:34:01;10.77;;;7.93;;
53666;SDS011;39568;51.026;5.468;2023-05-10T10:36:36;23.05;;;11.07;;
53666;SDS011;39568;51.026;5.468;2023-05-10T10:39:09;14.75;;;9.82;;
53666;SDS011;39568;51.026;5.468;2023-05-10T10:41:49;20.92;;;11.98;;
53666;SDS011;39568;51.026;5.468;2023-05-10T10:44:24;20.27;;;11.32;;
53666;SDS011;39568;51.026;5.468;2023-05-10T10:47:05;15.60;;;10.30;;
53666;SDS011;39568;51.026;5.468;2023-05-10T10:49:42;23.92;;;11.75;;
53666;SDS011;39568;51.026;5.468;2023-05-10T10:52:14;24.15;;;12.23;;
53666;SDS011;39568;51.026;5.468;2023-05-10T10:54:58;17.20;;;9.55;;
53666;SDS011;39568;51.026;5.468;2023-05-10T10:57:28;7.35;;;6.10;;
53666;SDS011;39568;51.026;5.468;2023-05-10T11:03:03;16.73;;;12.07;;
53666;SDS011;39568;51.026;5.468;2023-05-10T11:08:09;12.65;;;7.78;;
53666;SDS011;39568;51.026;5.468;2023-05-10T11:10:48;9.80;;;6.97;;
53666;SDS011;39568;51.026;5.468;2023-05-10T11:13:26;17.33;;;9.20;;
53666;SDS011;39568;51.026;5.468;2023-05-10T11:15:55;9.15;;;7.10;;
53666;SDS011;39568;51.026;5.468;2023-05-10T11:18:24;11.90;;;8.38;;
53666;SDS011;39568;51.026;5.468;2023-05-10T11:20:52;14.95;;;8.20;;
53666;SDS011;39568;51.026;5.468;2023-05-10T11:23:23;12.43;;;6.93;;
53666;SDS011;39568;51.026;5.468;2023-05-10T11:25:50;11.93;;;8.55;;
53666;SDS011;39568;51.026;5.468;2023-05-10T11:28:19;10.40;;;6.95;;
53666;SDS011;39568;51.026;5.468;2023-05-10T11:30:46;13.73;;;9.00;;
53666;SDS011;39568;51.026;5.468;2023-05-10T11:33:17;15.00;;;10.10;;
53666;SDS011;39568;51.026;5.468;2023-05-10T11:35:44;32.08;;;9.52;;
53666;SDS011;39568;51.026;5.468;2023-05-10T11:38:12;10.98;;;8.27;;
53666;SDS011;39568;51.026;5.468;2023-05-10T11:40:39;14.23;;;9.48;;
53666;SDS011;39568;51.026;5.468;2023-05-10T11:43:06;11.43;;;8.95;;
53666;SDS011;39568;51.026;5.468;2023-05-10T11:45:37;12.13;;;7.85;;
53666;SDS011;39568;51.026;5.468;2023-05-10T11:48:04;5.93;;;5.32;;
53666;SDS011;39568;51.026;5.468;2023-05-10T11:50:31;7.68;;;6.40;;
53666;SDS011;39568;51.026;5.468;2023-05-10T11:53:03;14.35;;;9.55;;
53666;SDS011;39568;51.026;5.468;2023-05-10T11:55:33;15.48;;;7.68;;
53666;SDS011;39568;51.026;5.468;2023-05-10T11:58:00;11.43;;;7.05;;
53666;SDS011;39568;51.026;5.468;2023-05-10T12:00:29;19.48;;;9.43;;
53666;SDS011;39568;51.026;5.468;2023-05-10T12:02:59;16.15;;;5.03;;
53666;SDS011;39568;51.026;5.468;2023-05-10T12:05:26;10.55;;;7.00;;
53666;SDS011;39568;51.026;5.468;2023-05-10T12:10:39;15.48;;;8.02;;
53666;SDS011;39568;51.026;5.468;2023-05-10T12:13:16;16.38;;;7.75;;
53666;SDS011;39568;51.026;5.468;2023-05-10T12:15:43;14.55;;;6.13;;
53666;SDS011;39568;51.026;5.468;2023-05-10T12:18:12;6.55;;;5.70;;
53666;SDS011;39568;51.026;5.468;2023-05-10T12:20:41;11.02;;;7.60;;
53666;SDS011;39568;51.026;5.468;2023-05-10T12:23:08;9.82;;;5.18;;
53666;SDS011;39568;51.026;5.468;2023-05-10T12:25:37;6.35;;;5.78;;
53666;SDS011;39568;51.026;5.468;2023-05-10T12:28:05;9.00;;;5.20;;
53666;SDS011;39568;51.026;5.468;2023-05-10T12:30:36;8.35;;;5.45;;
53666;SDS011;39568;51.026;5.468;2023-05-10T12:33:07;8.60;;;6.80;;
53666;SDS011;39568;51.026;5.468;2023-05-10T12:35:44;6.93;;;5.93;;
53666;SDS011;39568;51.026;5.468;2023-05-10T12:38:27;5.32;;;3.70;;
53666;SDS011;39568;51.026;5.468;2023-05-10T12:40:56;8.57;;;6.35;;
53666;SDS011;39568;51.026;5.468;2023-05-10T12:43:24;4.90;;;3.75;;
53666;SDS011;39568;51.026;5.468;2023-05-10T12:45:58;8.60;;;5.55;;
53666;SDS011;39568;51.026;5.468;2023-05-10T12:48:25;12.70;;;3.20;;
53666;SDS011;39568;51.026;5.468;2023-05-10T12:50:58;5.03;;;4.63;;
53666;SDS011;39568;51.026;5.468;2023-05-10T12:53:24;4.97;;;4.07;;
53666;SDS011;39568;51.026;5.468;2023-05-10T12:55:51;2.15;;;1.92;;
53666;SDS011;39568;51.026;5.468;2023-05-10T12:58:22;4.35;;;3.17;;
53666;SDS011;39568;51.026;5.468;2023-05-10T13:00:48;3.17;;;2.92;;
53666;SDS011;39568;51.026;5.468;2023-05-10T13:03:16;3.38;;;3.17;;
53666;SDS011;39568;51.026;5.468;2023-05-10T13:05:44;4.05;;;3.75;;
53666;SDS011;39568;51.026;5.468;2023-05-10T13:08:15;13.55;;;7.88;;
53666;SDS011;39568;51.026;5.468;2023-05-10T13:10:42;11.50;;;6.60;;
53666;SDS011;39568;51.026;5.468;2023-05-10T13:13:16;4.07;;;2.47;;
53666;SDS011;39568;51.026;5.468;2023-05-10T13:15:43;29.55;;;17.08;;
53666;SDS011;39568;51.026;5.468;2023-05-10T13:18:10;6.45;;;5.72;;
53666;SDS011;39568;51.026;5.468;2023-05-10T13:20:37;4.40;;;3.78;;
53666;SDS011;39568;51.026;5.468;2023-05-10T13:25:36;6.93;;;5.82;;
53666;SDS011;39568;51.026;5.468;2023-05-10T13:28:02;4.88;;;4.57;;
53666;SDS011;39568;51.026;5.468;2023-05-10T13:30:29;3.67;;;3.47;;
53666;SDS011;39568;51.026;5.468;2023-05-10T13:32:56;7.22;;;4.47;;
53666;SDS011;39568;51.026;5.468;2023-05-10T13:35:24;6.75;;;4.15;;
53666;SDS011;39568;51.026;5.468;2023-05-10T13:37:51;4.43;;;4.03;;
53666;SDS011;39568;51.026;5.468;2023-05-10T13:40:21;3.65;;;3.33;;
53666;SDS011;39568;51.026;5.468;2023-05-10T13:42:49;3.83;;;3.47;;
53666;SDS011;39568;51.026;5.468;2023-05-10T13:45:16;4.00;;;3.70;;
53666;SDS011;39568;51.026;5.468;2023-05-10T13:47:43;6.50;;;4.55;;
53666;SDS011;39568;51.026;5.468;2023-05-10T13:50:14;10.20;;;6.90;;
53666;SDS011;39568;51.026;5.468;2023-05-10T13:52:41;8.18;;;5.88;;
53666;SDS011;39568;51.026;5.468;2023-05-10T13:55:08;4.65;;;4.25;;
53666;SDS011;39568;51.026;5.468;2023-05-10T13:57:37;4.70;;;2.47;;
53666;SDS011;39568;51.026;5.468;2023-05-10T14:00:06;2.58;;;1.65;;
53666;SDS011;39568;51.026;5.468;2023-05-10T14:02:33;1.38;;;1.35;;
53666;SDS011;39568;51.026;5.468;2023-05-10T14:05:03;3.65;;;3.45;;
53666;SDS011;39568;51.026;5.468;2023-05-10T14:07:30;2.83;;;2.63;;
53666;SDS011;39568;51.026;5.468;2023-05-10T14:09:57;1.65;;;1.52;;
53666;SDS011;39568;51.026;5.468;2023-05-10T14:12:24;1.40;;;1.30;;
53666;SDS011;39568;51.026;5.468;2023-05-10T14:14:50;3.00;;;1.48;;
53666;SDS011;39568;51.026;5.468;2023-05-10T14:17:18;2.00;;;1.90;;
53666;SDS011;39568;51.026;5.468;2023-05-10T14:19:45;2.40;;;2.30;;
53666;SDS011;39568;51.026;5.468;2023-05-10T14:22:12;1.77;;;1.67;;
53666;SDS011;39568;51.026;5.468;2023-05-10T14:24:39;1.92;;;1.83;;
53666;SDS011;39568;51.026;5.468;2023-05-10T14:27:06;1.77;;;1.67;;
53666;SDS011;39568;51.026;5.468;2023-05-10T14:29:33;1.45;;;1.35;;
53666;SDS011;39568;51.026;5.468;2023-05-10T14:32:02;3.05;;;2.40;;
53666;SDS011;39568;51.026;5.468;2023-05-10T14:34:30;2.05;;;1.95;;
53666;SDS011;39568;51.026;5.468;2023-05-10T14:37:00;2.03;;;1.92;;
53666;SDS011;39568;51.026;5.468;2023-05-10T14:39:26;2.40;;;2.30;;
53666;SDS011;39568;51.026;5.468;2023-05-10T14:41:54;2.45;;;2.35;;
53666;SDS011;39568;51.026;5.468;2023-05-10T14:44:21;1.95;;;1.85;;
53666;SDS011;39568;51.026;5.468;2023-05-10T14:46:48;1.90;;;1.80;;
53666;SDS011;39568;51.026;5.468;2023-05-10T14:49:18;1.73;;;1.60;;
53666;SDS011;39568;51.026;5.468;2023-05-10T14:51:52;2.28;;;2.00;;
53666;SDS011;39568;51.026;5.468;2023-05-10T14:54:18;2.10;;;1.90;;
53666;SDS011;39568;51.026;5.468;2023-05-10T14:56:45;3.40;;;1.42;;
53666;SDS011;39568;51.026;5.468;2023-05-10T14:59:14;1.73;;;1.60;;
53666;SDS011;39568;51.026;5.468;2023-05-10T15:01:41;1.30;;;1.30;;